createdAt,value
2022-09-14T00:01:25.788Z,100101.40
2022-09-14T00:03:55.163Z,100107.73
2022-09-14T00:06:22.818Z,100111.29
2022-09-14T00:08:54.577Z,100104.61
2022-09-14T00:11:23.210Z,100103.52
2022-09-14T00:13:52.258Z,100099.38
2022-09-14T00:16:25.700Z,100100.67
2022-09-14T00:18:54.002Z,100098.87
2022-09-14T00:21:21.629Z,100100.79
2022-09-14T00:23:48.622Z,100099.98
2022-09-14T00:26:19.039Z,100100.63
2022-09-14T00:28:48.788Z,100106.99
2022-09-14T00:31:16.914Z,100103.71
2022-09-14T00:33:47.239Z,100097.93
2022-09-14T00:36:19.683Z,100094.21
2022-09-14T00:38:47.780Z,100088.48
2022-09-14T00:41:19.727Z,100084.26
2022-09-14T00:44:04.675Z,100081.02
2022-09-14T00:46:43.516Z,100080.61
2022-09-14T00:49:14.237Z,100073.08
2022-09-14T00:51:46.154Z,100067.50
2022-09-14T00:54:13.379Z,100065.61
2022-09-14T00:56:40.677Z,100069.23
2022-09-14T00:59:14.374Z,100070.36
2022-09-14T01:01:41.441Z,100073.44
2022-09-14T01:04:08.825Z,100068.65
2022-09-14T01:07:06.489Z,100070.29
2022-09-14T01:10:01.281Z,100064.80
2022-09-14T01:13:18.081Z,100063.44
2022-09-14T01:16:11.611Z,100059.14
2022-09-14T01:18:39.804Z,100053.60
2022-09-14T01:21:18.931Z,100051.71
2022-09-14T01:24:04.796Z,100054.29
2022-09-14T01:26:59.446Z,100053.84
2022-09-14T01:29:29.046Z,100056.05
2022-09-14T01:32:04.078Z,100059.05
2022-09-14T01:34:36.545Z,100058.72
2022-09-14T01:37:13.837Z,100064.91
2022-09-14T01:39:45.073Z,100069.34
2022-09-14T01:42:13.608Z,100071.88
2022-09-14T01:44:45.444Z,100074.79
2022-09-14T01:47:23.346Z,100070.11
2022-09-14T01:49:55.738Z,100063.27
2022-09-14T01:52:40.521Z,100062.13
2022-09-14T01:55:13.766Z,100060.56
2022-09-14T01:58:02.946Z,100052.89
2022-09-14T02:00:30.878Z,100047.04
2022-09-14T02:03:06.763Z,100044.38
2022-09-14T02:06:08.024Z,100042.34
2022-09-14T02:08:35.454Z,100035.11
2022-09-14T02:11:02.413Z,100032.60
2022-09-14T02:13:29.591Z,100028.39
2022-09-14T02:15:56.643Z,100029.09
2022-09-14T02:18:23.556Z,100028.80
2022-09-14T02:20:53.209Z,100030.16
2022-09-14T02:23:20.395Z,100022.24
2022-09-14T02:25:47.609Z,100027.73
2022-09-14T02:28:15.121Z,100028.89
2022-09-14T02:31:23.661Z,100031.39
2022-09-14T02:34:03.726Z,100027.45
2022-09-14T02:36:45.363Z,100027.30
2022-09-14T02:39:22.953Z,100034.14
2022-09-14T02:41:56.071Z,100031.52
2022-09-14T02:44:41.848Z,100031.20
2022-09-14T02:47:27.419Z,100032.39
2022-09-14T02:49:57.555Z,100028.51
2022-09-14T02:52:27.425Z,100032.15
2022-09-14T02:55:03.332Z,100030.18
2022-09-14T02:57:30.368Z,100024.17
2022-09-14T02:59:57.369Z,100015.64
2022-09-14T03:02:24.114Z,100014.01
2022-09-14T03:04:51.197Z,100011.84
2022-09-14T03:07:18.216Z,100008.06
2022-09-14T03:09:45.455Z,100004.55
2022-09-14T03:12:12.535Z,100006.31
2022-09-14T03:14:39.697Z,100014.09
2022-09-14T03:17:07.040Z,100019.09
2022-09-14T03:19:34.118Z,100017.04
2022-09-14T03:22:01.101Z,100017.01
2022-09-14T03:24:28.136Z,100018.83
2022-09-14T03:26:55.323Z,100012.09
2022-09-14T03:29:22.106Z,100012.39
2022-09-14T03:31:49.167Z,100007.27
2022-09-14T03:34:16.251Z,99997.80
2022-09-14T03:36:43.246Z,99990.48
2022-09-14T03:39:10.296Z,99986.10
2022-09-14T03:41:37.268Z,99982.75
2022-09-14T03:44:04.257Z,99978.86
2022-09-14T03:46:31.528Z,99971.66
2022-09-14T03:48:58.575Z,99970.34
2022-09-14T03:51:25.793Z,99972.34
2022-09-14T03:53:52.796Z,99966.95
2022-09-14T03:56:22.031Z,99961.16
2022-09-14T03:58:49.338Z,99962.04
2022-09-14T04:01:18.751Z,99962.04
2022-09-14T04:03:46.365Z,99956.56
2022-09-14T04:06:16.276Z,99956.86
2022-09-14T04:08:44.079Z,99955.42
2022-09-14T04:11:14.567Z,99952.02
2022-09-14T04:13:41.865Z,99947.57
2022-09-14T04:16:09.175Z,99946.92
2022-09-14T04:18:36.409Z,99949.87
2022-09-14T04:21:14.233Z,99951.02
2022-09-14T04:26:30.248Z,99962.77
2022-09-14T04:28:58.105Z,99963.54
2022-09-14T04:31:25.450Z,99960.85
2022-09-14T04:33:54.288Z,99962.73
2022-09-14T04:36:22.625Z,99961.42
2022-09-14T04:38:53.373Z,99960.35
2022-09-14T04:41:21.111Z,99961.88
2022-09-14T04:43:50.480Z,99970.75
2022-09-14T04:46:19.953Z,99968.21
2022-09-14T04:48:47.014Z,99967.31
2022-09-14T04:51:19.029Z,99959.21
2022-09-14T04:53:50.703Z,99959.45
2022-09-14T04:56:19.035Z,99961.63
2022-09-14T04:58:51.353Z,99961.77
2022-09-14T05:01:21.929Z,99965.19
2022-09-14T05:03:48.928Z,99964.73
2022-09-14T05:06:18.484Z,99962.52
2022-09-14T05:08:45.862Z,99963.41
2022-09-14T05:11:15.199Z,99959.34
2022-09-14T05:13:46.234Z,99956.16
2022-09-14T05:16:20.959Z,99953.80
2022-09-14T05:18:48.109Z,99954.75
2022-09-14T05:21:18.310Z,99955.55
2022-09-14T05:23:45.292Z,99959.65
2022-09-14T05:26:13.407Z,99962.02
2022-09-14T05:28:41.047Z,99960.44
2022-09-14T05:31:09.805Z,99960.92
2022-09-14T05:33:36.880Z,99964.86
2022-09-14T05:36:09.095Z,99960.56
2022-09-14T05:38:38.198Z,99958.77
2022-09-14T05:41:10.183Z,99956.58
2022-09-14T05:43:36.912Z,99960.56
2022-09-14T05:46:09.475Z,99956.30
2022-09-14T05:48:37.603Z,99953.59
2022-09-14T05:51:16.272Z,99952.83
2022-09-14T05:53:47.184Z,99951.07
2022-09-14T05:56:14.432Z,99954.34
2022-09-14T05:58:42.240Z,99952.77
2022-09-14T06:01:19.496Z,99954.72
2022-09-14T06:03:48.035Z,99953.58
2022-09-14T06:06:18.168Z,99949.55
2022-09-14T06:08:45.053Z,99950.38
2022-09-14T06:11:12.885Z,99948.64
2022-09-14T06:13:39.974Z,99946.76
2022-09-14T06:16:15.624Z,99940.55
2022-09-14T06:18:44.344Z,99939.26
2022-09-14T06:21:15.174Z,99940.43
2022-09-14T06:23:42.119Z,99932.92
2022-09-14T06:26:09.558Z,99928.59
2022-09-14T06:28:36.558Z,99922.30
2022-09-14T06:31:07.593Z,99925.83
2022-09-14T06:33:35.057Z,99923.68
2022-09-14T06:36:12.470Z,99927.93
2022-09-14T06:38:40.465Z,99926.70
2022-09-14T06:41:09.283Z,99925.30
2022-09-14T06:43:41.245Z,99925.44
2022-09-14T06:46:18.809Z,99924.81
2022-09-14T06:49:00.846Z,99931.17
2022-09-14T06:51:30.942Z,99930.28
2022-09-14T06:54:01.210Z,99923.68
2022-09-14T06:56:48.091Z,99919.92
2022-09-14T06:59:16.294Z,99923.93
2022-09-14T07:01:45.307Z,99922.30
2022-09-14T07:04:12.464Z,99920.08
2022-09-14T07:06:43.417Z,99928.61
2022-09-14T07:09:10.548Z,99929.04
2022-09-14T07:11:38.355Z,99932.38
2022-09-14T07:14:05.726Z,99935.37
2022-09-14T07:16:34.573Z,99940.46
2022-09-14T07:19:03.593Z,99939.73
2022-09-14T07:21:31.937Z,99939.28
2022-09-14T07:23:58.978Z,99935.77
2022-09-14T07:26:31.908Z,99930.69
2022-09-14T07:29:01.431Z,99931.56
2022-09-14T07:31:31.072Z,99931.27
2022-09-14T07:34:04.522Z,99932.40
2022-09-14T07:36:35.053Z,99935.95
2022-09-14T07:39:04.019Z,99924.24
2022-09-14T07:41:32.933Z,99920.25
2022-09-14T07:44:00.710Z,99921.83
2022-09-14T07:46:29.089Z,99924.58
2022-09-14T07:49:01.038Z,99920.46
2022-09-14T07:51:29.209Z,99919.23
2022-09-14T07:53:56.398Z,99921.38
2022-09-14T07:56:25.673Z,99920.11
2022-09-14T07:59:11.865Z,99926.44
2022-09-14T08:01:46.934Z,99929.16
2022-09-14T08:04:14.235Z,99923.67
2022-09-14T08:06:41.181Z,99916.70
2022-09-14T08:09:08.861Z,99912.63
2022-09-14T08:11:36.354Z,99912.65
2022-09-14T08:14:06.641Z,99911.38
2022-09-14T08:16:38.622Z,99909.54
2022-09-14T08:19:10.762Z,99907.02
2022-09-14T08:21:39.865Z,99903.95
2022-09-14T08:24:12.872Z,99911.23
2022-09-14T08:26:40.840Z,99906.08
2022-09-14T08:29:08.084Z,99908.36
2022-09-14T08:31:39.050Z,99905.72
2022-09-14T08:34:06.851Z,99907.34
2022-09-14T08:36:39.067Z,99903.90
2022-09-14T08:39:09.211Z,99903.86
2022-09-14T08:41:41.093Z,99911.20
2022-09-14T08:44:31.300Z,99911.73
2022-09-14T08:47:09.529Z,99913.58
2022-09-14T08:49:39.421Z,99915.30
2022-09-14T08:52:10.582Z,99907.51
2022-09-14T08:54:37.726Z,99900.16
2022-09-14T08:57:31.752Z,99898.11
2022-09-14T09:00:13.771Z,99898.90
2022-09-14T09:02:49.555Z,99894.30
2022-09-14T09:05:37.930Z,99895.36
2022-09-14T09:08:13.668Z,99896.27
2022-09-14T09:10:41.903Z,99898.12
2022-09-14T09:13:15.364Z,99901.42
2022-09-14T09:15:50.619Z,99898.52
2022-09-14T09:18:38.207Z,99898.81
2022-09-14T09:21:13.679Z,99892.14
2022-09-14T09:23:41.391Z,99883.65
2022-09-14T09:26:23.030Z,99879.72
2022-09-14T09:28:54.541Z,99880.17
2022-09-14T09:31:33.691Z,99884.26
2022-09-14T09:34:01.493Z,99881.56
2022-09-14T09:36:36.086Z,99875.42
2022-09-14T09:39:05.309Z,99872.96
2022-09-14T09:41:43.391Z,99876.30
2022-09-14T09:44:10.971Z,99874.52
2022-09-14T09:46:55.927Z,99869.98
2022-09-14T09:49:40.895Z,99870.40
2022-09-14T09:52:17.553Z,99877.15
2022-09-14T09:54:51.360Z,99873.45
2022-09-14T09:57:36.043Z,99868.16
2022-09-14T10:00:25.677Z,99863.84
2022-09-14T10:02:53.963Z,99865.38
2022-09-14T10:05:34.580Z,99858.23
2022-09-14T10:08:15.259Z,99855.80
2022-09-14T10:10:43.544Z,99862.88
2022-09-14T10:13:20.969Z,99870.23
2022-09-14T10:15:48.857Z,99866.45
2022-09-14T10:18:20.136Z,99860.40
2022-09-14T10:20:53.035Z,99856.63
2022-09-14T10:23:20.058Z,99857.02
2022-09-14T10:26:10.681Z,99851.16
2022-09-14T10:28:38.473Z,99852.77
2022-09-14T10:31:20.113Z,99847.89
2022-09-14T10:33:51.606Z,99847.28
2022-09-14T10:36:26.638Z,99843.15
2022-09-14T10:39:12.846Z,99839.30
2022-09-14T10:42:07.928Z,99832.17
2022-09-14T10:44:56.859Z,99832.48
2022-09-14T10:47:41.302Z,99827.47
2022-09-14T10:50:26.181Z,99841.46
2022-09-14T10:53:20.514Z,99841.40
2022-09-14T10:56:10.198Z,99838.33
2022-09-14T10:58:58.532Z,99833.08
2022-09-14T11:01:42.892Z,99833.12
2022-09-14T11:04:25.041Z,99835.48
2022-09-14T11:06:51.697Z,99838.47
2022-09-14T11:09:42.734Z,99834.55
2022-09-14T11:12:22.514Z,99837.64
2022-09-14T11:15:16.846Z,99826.42
2022-09-14T11:17:59.804Z,99825.04
2022-09-14T11:20:34.284Z,99817.69
2022-09-14T11:23:15.994Z,99817.77
2022-09-14T11:25:48.301Z,99812.45
2022-09-14T11:28:27.185Z,99816.28
2022-09-14T11:31:01.969Z,99817.05
2022-09-14T11:33:38.704Z,99822.34
2022-09-14T11:36:16.839Z,99827.84
2022-09-14T11:39:04.662Z,99824.61
2022-09-14T11:41:42.697Z,99821.31
2022-09-14T11:44:27.891Z,99821.14
2022-09-14T11:47:20.573Z,99824.23
2022-09-14T11:50:13.347Z,99822.06
2022-09-14T11:52:40.679Z,99816.98
2022-09-14T11:55:16.670Z,99818.77
2022-09-14T11:57:46.331Z,99817.75
2022-09-14T12:04:05.558Z,99812.17
2022-09-14T12:06:32.246Z,99809.41
2022-09-14T12:09:14.170Z,99807.52
2022-09-14T12:11:42.561Z,99809.67
2022-09-14T12:14:24.495Z,99811.13
2022-09-14T12:17:38.160Z,99817.15
2022-09-14T12:20:27.787Z,99818.20
2022-09-14T12:23:06.157Z,99818.93
2022-09-14T12:25:34.456Z,99819.60
2022-09-14T12:28:01.437Z,99811.75
2022-09-14T12:30:41.042Z,99811.63
2022-09-14T12:33:31.172Z,99812.38
2022-09-14T12:36:22.679Z,99811.53
2022-09-14T12:38:55.222Z,99808.84
2022-09-14T12:41:21.972Z,99799.23
2022-09-14T12:43:51.868Z,99798.09
2022-09-14T12:46:21.797Z,99804.64
2022-09-14T12:48:48.775Z,99802.91
2022-09-14T12:51:31.248Z,99800.23
2022-09-14T12:54:16.069Z,99799.98
2022-09-14T12:57:07.342Z,99801.17
2022-09-14T13:00:02.028Z,99796.81
2022-09-14T13:02:49.729Z,99799.73
2022-09-14T13:05:20.508Z,99794.01
2022-09-14T13:07:47.274Z,99787.54
2022-09-14T13:10:20.915Z,99787.31
2022-09-14T13:12:48.657Z,99789.45
2022-09-14T13:15:22.712Z,99785.04
2022-09-14T13:17:56.494Z,99781.93
2022-09-14T13:20:23.496Z,99781.82
2022-09-14T13:22:50.511Z,99780.81
2022-09-14T13:25:29.190Z,99780.48
2022-09-14T13:27:56.637Z,99770.63
2022-09-14T13:30:27.419Z,99765.80
2022-09-14T13:32:57.447Z,99764.70
2022-09-14T13:35:35.235Z,99765.89
2022-09-14T13:38:20.605Z,99765.95
2022-09-14T13:40:51.635Z,99766.69
2022-09-14T13:43:20.260Z,99767.09
2022-09-14T13:45:48.622Z,99766.27
2022-09-14T13:48:17.227Z,99766.46
2022-09-14T13:50:47.098Z,99767.35
2022-09-14T13:53:38.380Z,99769.59
2022-09-14T13:56:18.647Z,99764.62
2022-09-14T13:58:46.397Z,99757.23
2022-09-14T14:01:13.526Z,99752.44
2022-09-14T14:03:50.103Z,99753.80
2022-09-14T14:06:37.799Z,99750.27
2022-09-14T14:09:10.477Z,99743.89
2022-09-14T14:11:45.440Z,99739.86
2022-09-14T14:14:30.907Z,99738.16
2022-09-14T14:17:13.413Z,99731.63
2022-09-14T14:19:41.231Z,99724.33
2022-09-14T14:22:14.131Z,99724.36
2022-09-14T14:25:12.186Z,99717.09
2022-09-14T14:27:43.524Z,99721.13
2022-09-14T14:30:21.913Z,99718.17
2022-09-14T14:32:53.295Z,99719.42
2022-09-14T14:35:22.822Z,99714.72
2022-09-14T14:37:50.704Z,99713.03
2022-09-14T14:40:19.363Z,99713.70
2022-09-14T14:42:47.173Z,99708.55
2022-09-14T14:45:19.325Z,99701.42
2022-09-14T14:47:47.647Z,99704.52
2022-09-14T14:50:16.631Z,99695.17
2022-09-14T14:52:43.954Z,99691.13
2022-09-14T14:55:13.923Z,99690.55
2022-09-14T14:57:40.933Z,99690.75
2022-09-14T15:00:14.508Z,99687.05
2022-09-14T15:02:41.320Z,99686.77
2022-09-14T15:05:08.597Z,99687.54
2022-09-14T15:07:37.777Z,99681.75
2022-09-14T15:10:05.849Z,99688.29
2022-09-14T15:12:33.125Z,99684.72
2022-09-14T15:15:00.602Z,99687.28
2022-09-14T15:17:27.356Z,99688.64
2022-09-14T15:19:54.343Z,99685.52
2022-09-14T15:22:21.094Z,99680.24
2022-09-14T15:24:48.042Z,99683.95
2022-09-14T15:27:14.915Z,99685.10
2022-09-14T15:29:41.760Z,99680.85
2022-09-14T15:32:08.592Z,99677.67
2022-09-14T15:34:35.443Z,99674.79
2022-09-14T15:37:02.180Z,99681.00
2022-09-14T15:39:31.288Z,99683.89
2022-09-14T15:41:58.720Z,99685.06
2022-09-14T15:44:25.966Z,99687.98
2022-09-14T15:46:52.979Z,99682.70
2022-09-14T15:49:22.459Z,99677.92
2022-09-14T15:51:51.485Z,99672.89
2022-09-14T15:54:19.629Z,99674.23
2022-09-14T15:56:51.395Z,99680.23
2022-09-14T15:59:19.194Z,99677.15
2022-09-14T16:01:46.760Z,99676.97
2022-09-14T16:04:15.086Z,99679.05
2022-09-14T16:06:43.039Z,99676.17
2022-09-14T16:09:11.603Z,99675.59
2022-09-14T16:11:39.651Z,99671.89
2022-09-14T16:14:08.639Z,99676.18
2022-09-14T16:16:37.066Z,99673.75
2022-09-14T16:19:10.641Z,99673.98
2022-09-14T16:21:38.295Z,99668.98
2022-09-14T16:24:08.446Z,99664.66
2022-09-14T16:26:37.963Z,99667.60
2022-09-14T16:29:06.158Z,99671.83
2022-09-14T16:31:36.172Z,99671.49
2022-09-14T16:34:06.007Z,99671.85
2022-09-14T16:36:35.796Z,99673.34
2022-09-14T16:39:04.643Z,99673.41
2022-09-14T16:41:31.823Z,99668.70
2022-09-14T16:44:01.805Z,99666.00
2022-09-14T16:46:29.973Z,99668.06
2022-09-14T16:48:58.610Z,99667.09
2022-09-14T16:51:27.482Z,99664.41
2022-09-14T16:53:54.802Z,99671.69
2022-09-14T16:56:27.806Z,99672.52
2022-09-14T16:58:55.912Z,99676.29
2022-09-14T17:01:30.206Z,99674.20
2022-09-14T17:04:03.929Z,99672.98
2022-09-14T17:06:32.942Z,99673.06
2022-09-14T17:09:02.784Z,99671.30
2022-09-14T17:11:32.262Z,99661.59
2022-09-14T17:13:59.766Z,99661.25
2022-09-14T17:16:27.604Z,99661.00
2022-09-14T17:18:58.342Z,99660.14
2022-09-14T17:21:34.564Z,99657.92
2022-09-14T17:24:04.935Z,99657.85
2022-09-14T17:26:32.533Z,99658.61
2022-09-14T17:29:00.742Z,99655.55
2022-09-14T17:31:30.397Z,99656.30
2022-09-14T17:33:58.925Z,99657.85
2022-09-14T17:36:26.600Z,99655.36
2022-09-14T17:38:56.498Z,99646.95
2022-09-14T17:41:24.190Z,99646.44
2022-09-14T17:43:53.439Z,99642.14
2022-09-14T17:46:24.450Z,99638.19
2022-09-14T17:49:40.772Z,99640.38
2022-09-14T17:52:07.431Z,99644.61
2022-09-14T17:54:37.167Z,99641.91
2022-09-14T17:57:04.057Z,99647.56
2022-09-14T17:59:31.272Z,99648.98
2022-09-14T18:02:00.693Z,99646.27
2022-09-14T18:04:28.070Z,99654.19
2022-09-14T18:06:57.420Z,99656.32
2022-09-14T18:09:24.612Z,99656.92
2022-09-14T18:11:54.688Z,99654.11
2022-09-14T18:14:21.278Z,99653.70
2022-09-14T18:16:47.766Z,99656.39
2022-09-14T18:19:15.413Z,99661.20
2022-09-14T18:21:42.880Z,99658.25
2022-09-14T18:24:11.353Z,99658.95
2022-09-14T18:26:40.993Z,99661.34
2022-09-14T18:29:07.781Z,99666.59
2022-09-14T18:31:34.744Z,99671.05
2022-09-14T18:34:01.729Z,99677.30
2022-09-14T18:36:29.876Z,99678.43
2022-09-14T18:38:58.368Z,99683.39
2022-09-14T18:41:24.970Z,99680.85
2022-09-14T18:43:53.332Z,99683.73
2022-09-14T18:46:22.483Z,99694.90
2022-09-14T18:48:54.274Z,99698.95
2022-09-14T18:51:21.499Z,99697.42
2022-09-14T18:53:49.012Z,99696.72
2022-09-14T18:56:17.654Z,99695.86
2022-09-14T18:58:46.255Z,99700.02
2022-09-14T19:01:13.851Z,99696.05
2022-09-14T19:03:42.446Z,99698.09
2022-09-14T19:06:13.125Z,99706.00
2022-09-14T19:08:40.487Z,99709.00
2022-09-14T19:11:12.768Z,99703.46
2022-09-14T19:13:40.002Z,99702.83
2022-09-14T19:16:18.679Z,99708.60
2022-09-14T19:18:47.885Z,99703.77
2022-09-14T19:21:23.448Z,99701.24
2022-09-14T19:23:57.192Z,99702.86
2022-09-14T19:26:24.076Z,99702.27
2022-09-14T19:28:51.181Z,99703.32
2022-09-14T19:31:19.834Z,99706.45
2022-09-14T19:33:46.667Z,99704.60
2022-09-14T19:36:19.811Z,99704.41
2022-09-14T19:38:47.143Z,99699.12
2022-09-14T19:41:13.669Z,99698.60
2022-09-14T19:43:40.495Z,99701.92
2022-09-14T19:46:09.950Z,99708.95
2022-09-14T19:48:38.004Z,99710.36
2022-09-14T19:51:10.955Z,99714.45
2022-09-14T19:53:38.785Z,99718.62
2022-09-14T19:56:11.849Z,99711.98
2022-09-14T19:58:40.859Z,99711.25
2022-09-14T20:01:08.232Z,99709.70
2022-09-14T20:03:36.804Z,99712.00
2022-09-14T20:06:10.970Z,99714.39
2022-09-14T20:08:38.308Z,99713.05
2022-09-14T20:11:10.623Z,99715.00
2022-09-14T20:13:40.115Z,99716.30
2022-09-14T20:16:34.804Z,99723.59
2022-09-14T20:19:10.677Z,99724.69
2022-09-14T20:21:37.929Z,99726.19
2022-09-14T20:24:22.013Z,99732.96
2022-09-14T20:26:50.482Z,99725.55
2022-09-14T20:29:19.020Z,99722.13
2022-09-14T20:31:48.833Z,99726.98
2022-09-14T20:34:18.156Z,99728.84
2022-09-14T20:36:44.850Z,99728.28
2022-09-14T20:39:11.500Z,99729.40
2022-09-14T20:41:38.495Z,99728.70
2022-09-14T20:44:06.032Z,99730.29
2022-09-14T20:46:39.158Z,99727.50
2022-09-14T20:49:13.970Z,99727.68
2022-09-14T20:51:41.319Z,99726.91
2022-09-14T20:54:10.569Z,99724.81
2022-09-14T20:56:37.830Z,99725.30
2022-09-14T20:59:08.357Z,99726.23
2022-09-14T21:01:37.345Z,99725.57
2022-09-14T21:04:07.204Z,99726.71
2022-09-14T21:06:36.405Z,99727.65
2022-09-14T21:09:04.582Z,99728.05
2022-09-14T21:11:31.544Z,99730.77
2022-09-14T21:13:58.756Z,99731.09
2022-09-14T21:16:33.464Z,99734.31
2022-09-14T21:19:08.947Z,99736.02
2022-09-14T21:21:36.190Z,99735.04
2022-09-14T21:24:05.595Z,99738.69
2022-09-14T21:26:33.929Z,99739.79
2022-09-14T21:29:03.493Z,99741.56
2022-09-14T21:31:30.444Z,99742.95
2022-09-14T21:33:59.096Z,99746.60
2022-09-14T21:36:29.334Z,99749.27
2022-09-14T21:39:02.192Z,99751.71
2022-09-14T21:41:30.706Z,99750.48
2022-09-14T21:43:58.110Z,99749.80
2022-09-14T21:46:25.544Z,99746.73
2022-09-14T21:48:52.703Z,99748.05
2022-09-14T21:51:22.621Z,99744.88
2022-09-14T21:53:52.562Z,99746.10
2022-09-14T21:56:20.607Z,99741.02
2022-09-14T21:59:00.359Z,99744.34
2022-09-14T22:01:28.297Z,99747.70
2022-09-14T22:03:55.941Z,99744.68
2022-09-14T22:06:25.416Z,99745.22
2022-09-14T22:08:52.425Z,99742.51
2022-09-14T22:11:24.797Z,99737.00
2022-09-14T22:14:00.517Z,99739.36
2022-09-14T22:16:29.748Z,99741.92
2022-09-14T22:18:58.542Z,99742.41
2022-09-14T22:21:27.263Z,99734.69
2022-09-14T22:23:59.292Z,99736.52
2022-09-14T22:26:28.541Z,99737.31
2022-09-14T22:28:55.951Z,99739.52
2022-09-14T22:31:23.458Z,99736.77
2022-09-14T22:33:50.738Z,99737.70
2022-09-14T22:36:17.766Z,99735.42
2022-09-14T22:38:45.673Z,99732.14
2022-09-14T22:41:14.985Z,99729.91
2022-09-14T22:43:44.897Z,99730.83
2022-09-14T22:46:11.986Z,99733.97
2022-09-14T22:48:39.395Z,99732.77
2022-09-14T22:51:08.304Z,99722.64
2022-09-14T22:53:35.392Z,99716.63
2022-09-14T22:56:16.387Z,99717.86
2022-09-14T22:58:43.900Z,99721.45
2022-09-14T23:01:13.518Z,99718.64
2022-09-14T23:03:40.554Z,99721.29
2022-09-14T23:06:08.181Z,99721.58
2022-09-14T23:08:35.938Z,99722.45
2022-09-14T23:11:06.958Z,99723.73
2022-09-14T23:13:37.972Z,99716.30
2022-09-14T23:16:13.356Z,99715.98
2022-09-14T23:18:40.491Z,99712.88
2022-09-14T23:21:08.140Z,99715.45
2022-09-14T23:23:35.393Z,99712.26
2022-09-14T23:26:10.622Z,99708.96
2022-09-14T23:28:38.027Z,99707.32
2022-09-14T23:31:08.191Z,99706.91
2022-09-14T23:33:34.995Z,99711.45
2022-09-14T23:36:07.492Z,99714.62
2022-09-14T23:38:35.314Z,99712.20
2022-09-14T23:41:04.382Z,99709.66
2022-09-14T23:43:31.110Z,99709.91
2022-09-14T23:45:58.218Z,99710.99
2022-09-14T23:48:24.962Z,99711.51
2022-09-14T23:50:59.496Z,99716.13
2022-09-14T23:53:26.778Z,99715.98
2022-09-14T23:55:54.213Z,99716.77
2022-09-14T23:58:20.962Z,99717.52
